Time;durP1;ratioP1;P1;durP2;ratioP2;P2;SDS_P1;SDS_P2;PMS_P1;PMS_P2;Temp;Humidity;BMP_temperature;BMP_pressure;BME280_temperature;BME280_humidity;BME280_pressure;Samples;Min_cycle;Max_cycle;Signal;HPM_P1;HPM_P2
2022/11/23 00:01:15;;;;;;;65.60;31.37;;;3.10;99.90;;;;;;4817651;29;20218;-68
2022/11/23 00:03:44;;;;;;;75.90;32.83;;;3.10;99.90;;;;;;4822443;29;20698;-69
2022/11/23 00:06:15;;;;;;;65.73;30.87;;;3.10;99.90;;;;;;4822724;29;20291;-68
2022/11/23 00:08:43;;;;;;;70.97;29.87;;;3.20;99.90;;;;;;4822510;29;20264;-69
2022/11/23 00:11:12;;;;;;;61.83;27.73;;;3.20;99.90;;;;;;4822309;29;20203;-68
2022/11/23 00:13:41;;;;;;;63.10;29.47;;;3.10;99.90;;;;;;4822221;29;20259;-66
2022/11/23 00:16:12;;;;;;;58.50;28.33;;;3.10;99.90;;;;;;4822474;29;20677;-67
2022/11/23 00:18:40;;;;;;;61.43;29.70;;;2.90;99.90;;;;;;4822647;29;20198;-68
2022/11/23 00:21:11;;;;;;;63.90;29.47;;;3.00;99.90;;;;;;4822518;29;20230;-68
2022/11/23 00:23:41;;;;;;;68.73;28.37;;;3.10;99.90;;;;;;4800881;29;20218;-66
2022/11/23 00:26:09;;;;;;;61.83;29.17;;;3.10;99.90;;;;;;4831867;29;20231;-66
2022/11/23 00:28:39;;;;;;;59.37;30.03;;;3.10;99.90;;;;;;4840486;29;20217;-68
2022/11/23 00:31:10;;;;;;;65.57;27.53;;;3.20;99.90;;;;;;4840264;29;20428;-68
2022/11/23 00:33:38;;;;;;;68.40;30.40;;;3.20;99.90;;;;;;4840949;29;20215;-68
2022/11/23 00:36:10;;;;;;;59.47;28.47;;;3.30;99.90;;;;;;4824327;29;20584;-67
2022/11/23 00:38:41;;;;;;;61.07;28.87;;;3.20;99.90;;;;;;4818245;29;20411;-67
2022/11/23 00:41:11;;;;;;;64.00;29.07;;;3.20;99.90;;;;;;4840790;29;20285;-66
2022/11/23 00:43:40;;;;;;;66.53;27.97;;;3.30;99.90;;;;;;4840899;29;20225;-66
2022/11/23 00:46:12;;;;;;;58.23;29.77;;;3.20;99.90;;;;;;4841078;29;20648;-67
2022/11/23 00:48:42;;;;;;;63.63;28.37;;;3.20;99.90;;;;;;4809972;29;20219;-68
2022/11/23 00:51:12;;;;;;;56.17;26.13;;;3.20;99.90;;;;;;4823637;29;20206;-68
2022/11/23 00:53:42;;;;;;;61.97;29.00;;;3.20;99.90;;;;;;4822786;29;20678;-69
2022/11/23 00:56:12;;;;;;;60.43;26.47;;;3.20;99.90;;;;;;4806459;29;20239;-69
2022/11/23 00:58:41;;;;;;;56.47;26.77;;;3.10;99.90;;;;;;4805833;29;20203;-70
2022/11/23 01:01:11;;;;;;;58.83;25.87;;;3.20;99.90;;;;;;4796325;29;20213;-68
2022/11/23 01:03:43;;;;;;;49.63;23.70;;;3.00;99.90;;;;;;4801311;29;20669;-68
2022/11/23 01:06:13;;;;;;;54.07;25.60;;;2.90;99.90;;;;;;4822692;29;20578;-68
2022/11/23 01:08:47;;;;;;;62.33;26.73;;;2.80;99.90;;;;;;4817376;29;20248;-67
2022/11/23 01:11:16;;;;;;;55.27;26.47;;;2.90;99.90;;;;;;4804452;29;20201;-68
2022/11/23 01:13:45;;;;;;;59.80;27.73;;;2.80;99.90;;;;;;4789653;29;20215;-70
2022/11/23 01:16:16;;;;;;;59.20;28.47;;;2.80;99.90;;;;;;4822058;29;20219;-69
2022/11/23 01:18:52;;;;;;;59.43;27.00;;;2.90;99.90;;;;;;4821192;29;20212;-71
2022/11/23 01:21:22;;;;;;;64.63;27.13;;;2.80;99.90;;;;;;4828115;29;20242;-68
2022/11/23 01:23:52;;;;;;;62.27;27.90;;;2.90;99.90;;;;;;4827609;29;20205;-68
2022/11/23 01:26:21;;;;;;;58.03;26.07;;;2.80;99.90;;;;;;4825811;29;20297;-69
2022/11/23 01:28:50;;;;;;;60.67;26.77;;;2.80;99.90;;;;;;4826018;29;20210;-68
2022/11/23 01:31:20;;;;;;;58.23;26.50;;;2.80;99.90;;;;;;4825983;29;20202;-69
2022/11/23 01:33:52;;;;;;;53.73;25.93;;;2.80;99.90;;;;;;4810024;29;20210;-69
2022/11/23 01:36:22;;;;;;;54.60;25.27;;;2.80;99.90;;;;;;4810363;29;20204;-68
2022/11/23 01:38:53;;;;;;;59.27;24.50;;;2.80;99.90;;;;;;4826004;29;20237;-68
2022/11/23 01:41:25;;;;;;;59.00;25.57;;;2.70;99.90;;;;;;4825689;29;20690;-68
2022/11/23 01:43:54;;;;;;;59.20;27.10;;;2.70;99.90;;;;;;4825676;29;20220;-68
2022/11/23 01:46:22;;;;;;;57.77;25.53;;;2.70;99.90;;;;;;4809381;29;20282;-69
2022/11/23 01:48:55;;;;;;;60.10;26.07;;;2.80;99.90;;;;;;4809222;29;20596;-70
2022/11/23 01:51:27;;;;;;;55.63;26.23;;;2.90;99.90;;;;;;4825633;29;20210;-70
2022/11/23 01:54:00;;;;;;;59.77;27.77;;;3.00;99.90;;;;;;4823806;29;20216;-69
2022/11/23 01:56:34;;;;;;;57.50;24.97;;;3.10;99.90;;;;;;4809142;29;20209;-68
2022/11/23 01:59:07;;;;;;;54.87;26.60;;;3.10;99.90;;;;;;4809327;29;20210;-69
2022/11/23 02:01:36;;;;;;;55.63;25.00;;;3.20;99.90;;;;;;4825622;29;20549;-68
2022/11/23 02:04:09;;;;;;;65.60;26.60;;;3.10;99.90;;;;;;4820760;29;20235;-67
2022/11/23 02:06:40;;;;;;;54.40;25.17;;;2.90;99.90;;;;;;4824162;29;20226;-67
2022/11/23 02:09:10;;;;;;;65.37;26.43;;;3.00;99.90;;;;;;4835700;29;20312;-68
2022/11/23 02:11:39;;;;;;;59.07;25.13;;;2.90;99.90;;;;;;4824088;29;20296;-67
2022/11/23 02:14:07;;;;;;;55.03;26.43;;;2.80;99.90;;;;;;4843082;29;20199;-67
2022/11/23 02:16:37;;;;;;;53.23;25.50;;;2.70;99.90;;;;;;4843606;29;20201;-68
2022/11/23 02:19:15;;;;;;;55.03;26.93;;;2.80;99.90;;;;;;4843616;29;20573;-69
2022/11/23 02:21:44;;;;;;;52.77;25.43;;;2.80;99.90;;;;;;4843526;29;20687;-71
2022/11/23 02:24:23;;;;;;;55.33;25.43;;;2.90;99.90;;;;;;4843105;29;20198;-68
2022/11/23 02:26:53;;;;;;;58.33;25.20;;;3.00;99.90;;;;;;4843316;29;20650;-70
2022/11/23 02:29:25;;;;;;;56.27;25.50;;;3.00;99.90;;;;;;4823900;29;20210;-69
2022/11/23 02:31:53;;;;;;;57.93;24.63;;;3.00;99.90;;;;;;4841066;29;20549;-69
2022/11/23 02:34:24;;;;;;;52.53;23.67;;;3.00;99.90;;;;;;4823404;29;20304;-68
2022/11/23 02:36:55;;;;;;;51.83;24.00;;;2.90;99.90;;;;;;4818008;29;20241;-70
2022/11/23 02:39:30;;;;;;;53.17;24.80;;;2.90;99.90;;;;;;4825479;29;20617;-67
2022/11/23 02:42:00;;;;;;;53.50;24.97;;;2.90;99.90;;;;;;4825022;29;20553;-70
2022/11/23 02:44:37;;;;;;;55.17;24.43;;;3.00;99.90;;;;;;4808479;29;20230;-69
2022/11/23 02:47:07;;;;;;;53.23;24.67;;;3.00;99.90;;;;;;4808390;29;20241;-69
2022/11/23 02:49:36;;;;;;;53.63;24.27;;;2.90;99.90;;;;;;4824852;29;20201;-68
2022/11/23 02:52:04;;;;;;;60.40;26.30;;;2.70;99.90;;;;;;4824709;29;20198;-67
2022/11/23 02:54:33;;;;;;;52.17;24.43;;;2.60;99.90;;;;;;4808293;29;20234;-70
2022/11/23 02:57:03;;;;;;;65.10;26.87;;;2.60;99.90;;;;;;4808203;29;20223;-68
2022/11/23 02:59:32;;;;;;;60.47;26.63;;;2.70;99.90;;;;;;4808349;29;20210;-73
2022/11/23 03:02:03;;;;;;;54.97;25.93;;;2.60;99.90;;;;;;4823403;29;20689;-74
2022/11/23 03:04:32;;;;;;;59.33;27.20;;;2.80;99.90;;;;;;4808122;29;20673;-71
2022/11/23 03:07:00;;;;;;;61.50;27.37;;;2.90;99.90;;;;;;4825968;29;20226;-70
2022/11/23 03:09:28;;;;;;;58.63;26.33;;;2.90;99.90;;;;;;4842429;29;20242;-70
2022/11/23 03:11:57;;;;;;;64.73;26.63;;;2.90;99.90;;;;;;4826116;29;20220;-68
2022/11/23 03:14:29;;;;;;;58.80;26.10;;;2.90;99.90;;;;;;4826009;29;20233;-69
2022/11/23 03:17:01;;;;;;;59.53;28.23;;;2.90;99.90;;;;;;4825861;29;20213;-67
2022/11/23 03:19:34;;;;;;;66.17;27.40;;;2.90;99.90;;;;;;4826120;29;20211;-69
2022/11/23 03:22:04;;;;;;;64.27;27.17;;;2.90;99.90;;;;;;4826167;29;20622;-68
2022/11/23 03:24:32;;;;;;;55.83;24.67;;;3.00;99.90;;;;;;4825792;29;20201;-68
2022/11/23 03:27:03;;;;;;;65.57;28.83;;;2.90;99.90;;;;;;4825884;29;20243;-68
2022/11/23 03:29:33;;;;;;;62.90;27.17;;;3.00;99.90;;;;;;4842420;29;20209;-68
2022/11/23 03:32:07;;;;;;;56.97;26.03;;;2.90;99.90;;;;;;4825937;29;20351;-68
2022/11/23 03:34:36;;;;;;;58.10;25.40;;;2.90;99.90;;;;;;4825751;29;20209;-70
2022/11/23 03:37:05;;;;;;;60.10;27.73;;;2.90;99.90;;;;;;4824816;29;20198;-68
2022/11/23 03:39:33;;;;;;;59.97;27.17;;;2.90;99.90;;;;;;4825610;29;20284;-68
2022/11/23 03:42:10;;;;;;;61.83;27.97;;;2.90;99.90;;;;;;4842093;29;20213;-68
2022/11/23 03:44:40;;;;;;;59.23;27.30;;;2.90;99.90;;;;;;4825559;29;20245;-68
2022/11/23 03:47:08;;;;;;;63.13;28.03;;;2.90;99.90;;;;;;4808586;29;20227;-68
2022/11/23 03:49:37;;;;;;;58.00;27.67;;;2.90;99.90;;;;;;4824410;29;20288;-67
2022/11/23 03:52:05;;;;;;;66.47;28.10;;;2.90;99.90;;;;;;4823863;29;20209;-69
2022/11/23 03:54:34;;;;;;;65.87;29.00;;;2.90;99.90;;;;;;4807261;29;20217;-68
2022/11/23 03:57:03;;;;;;;68.57;30.33;;;2.90;99.90;;;;;;4822603;29;20214;-69
2022/11/23 03:59:32;;;;;;;59.33;28.43;;;2.90;99.90;;;;;;4807223;29;20678;-67
2022/11/23 04:02:02;;;;;;;63.17;30.37;;;3.00;99.90;;;;;;4822320;29;20214;-69
2022/11/23 04:04:36;;;;;;;62.30;28.90;;;3.00;99.90;;;;;;4807006;29;20214;-68
2022/11/23 04:07:09;;;;;;;57.80;29.77;;;3.00;99.90;;;;;;4806744;29;20276;-68
2022/11/23 04:09:41;;;;;;;60.13;28.33;;;3.00;99.90;;;;;;4807096;29;20246;-69
2022/11/23 04:12:23;;;;;;;62.40;27.50;;;3.00;99.90;;;;;;4821843;29;20210;-68
2022/11/23 04:14:51;;;;;;;67.00;29.10;;;3.10;99.90;;;;;;4806710;29;20308;-67
2022/11/23 04:17:21;;;;;;;66.97;28.57;;;3.20;99.90;;;;;;4822244;29;20210;-68
2022/11/23 04:19:49;;;;;;;64.43;30.10;;;3.20;99.90;;;;;;4822558;29;20578;-68
2022/11/23 04:22:18;;;;;;;65.07;29.50;;;3.20;99.90;;;;;;4824945;29;20610;-67
2022/11/23 04:24:47;;;;;;;68.97;30.27;;;3.20;99.90;;;;;;4824988;29;20226;-68
2022/11/23 04:27:16;;;;;;;62.10;28.20;;;3.20;99.90;;;;;;4824878;29;20232;-67
2022/11/23 04:29:44;;;;;;;64.17;27.87;;;3.10;99.90;;;;;;4840010;29;20202;-67
2022/11/23 04:32:13;;;;;;;58.57;26.57;;;3.00;99.90;;;;;;4825185;29;20213;-68
2022/11/23 04:34:43;;;;;;;68.87;29.97;;;3.00;99.90;;;;;;4824927;29;20810;-68
2022/11/23 04:37:13;;;;;;;68.27;29.23;;;3.10;99.90;;;;;;4824819;29;20221;-68
2022/11/23 04:39:44;;;;;;;73.83;29.23;;;3.20;99.90;;;;;;4824868;29;20248;-67
2022/11/23 04:42:20;;;;;;;58.83;26.87;;;3.20;99.90;;;;;;4824649;29;20205;-69
2022/11/23 04:44:54;;;;;;;58.40;27.23;;;3.10;99.90;;;;;;4824574;29;20672;-69
2022/11/23 04:47:23;;;;;;;57.63;26.57;;;3.00;99.90;;;;;;4819142;29;20697;-68
2022/11/23 04:49:53;;;;;;;62.07;27.27;;;2.90;99.90;;;;;;4806905;29;20208;-69
2022/11/23 04:52:22;;;;;;;56.77;25.70;;;2.90;99.90;;;;;;4823192;29;20289;-68
2022/11/23 04:54:51;;;;;;;69.23;28.60;;;2.70;99.90;;;;;;4806441;29;20209;-67
2022/11/23 04:57:19;;;;;;;62.80;28.87;;;2.50;99.90;;;;;;4821758;29;20218;-67
2022/11/23 04:59:52;;;;;;;66.50;28.23;;;2.40;99.90;;;;;;4806420;29;20305;-68
2022/11/23 05:02:21;;;;;;;69.67;28.17;;;2.40;99.90;;;;;;4821575;29;20275;-67
2022/11/23 05:05:29;;;;;;;59.73;26.23;;;2.40;99.90;;;;;;4749035;30;20247;-67
2022/11/23 05:07:59;;;;;;;65.40;28.20;;;2.40;99.90;;;;;;4748429;30;20249;-68
2022/11/23 05:10:39;;;;;;;58.53;26.50;;;2.30;99.90;;;;;;4748754;30;20208;-67
2022/11/23 05:13:08;;;;;;;60.47;29.13;;;2.50;99.90;;;;;;4764150;30;20218;-68
2022/11/23 05:15:36;;;;;;;56.30;26.87;;;2.50;99.90;;;;;;4767118;30;20211;-68
2022/11/23 05:18:07;;;;;;;64.90;27.27;;;2.50;99.90;;;;;;4766251;30;20212;-67
2022/11/23 05:20:38;;;;;;;66.87;28.40;;;2.40;99.90;;;;;;4766331;30;20207;-68
2022/11/23 05:23:07;;;;;;;61.60;28.17;;;2.40;99.90;;;;;;4766191;30;20258;-68
2022/11/23 05:25:39;;;;;;;59.83;26.67;;;2.50;99.90;;;;;;4766238;30;20216;-68
2022/11/23 05:28:16;;;;;;;70.97;27.40;;;2.60;99.90;;;;;;4766120;30;20232;-68
2022/11/23 05:31:05;;;;;;;61.87;30.13;;;2.70;99.90;;;;;;4749530;30;20654;-68
2022/11/23 05:33:33;;;;;;;69.57;32.53;;;2.60;99.90;;;;;;4747298;30;20213;-70
2022/11/23 05:36:05;;;;;;;64.57;29.50;;;2.80;99.90;;;;;;4757144;29;20211;-67
2022/11/23 05:38:37;;;;;;;69.73;28.80;;;2.80;99.90;;;;;;4804021;29;20799;-68
2022/11/23 05:41:12;;;;;;;59.97;26.97;;;2.60;99.90;;;;;;4789294;29;20267;-68
2022/11/23 05:43:43;;;;;;;62.57;28.60;;;2.70;99.90;;;;;;4820920;29;20214;-67
2022/11/23 05:46:17;;;;;;;56.70;27.73;;;2.80;99.90;;;;;;4820335;29;20215;-71
2022/11/23 05:48:46;;;;;;;59.13;27.70;;;2.70;99.90;;;;;;4823940;29;20652;-69
2022/11/23 05:51:16;;;;;;;66.80;30.33;;;2.60;99.90;;;;;;4840484;29;20209;-71
2022/11/23 05:53:45;;;;;;;66.23;29.27;;;2.70;99.90;;;;;;4820751;29;20753;-68
2022/11/23 05:56:28;;;;;;;60.80;27.80;;;2.70;99.90;;;;;;4821124;29;20219;-68
2022/11/23 05:59:05;;;;;;;59.40;28.23;;;2.80;99.90;;;;;;4823449;29;20673;-67
2022/11/23 06:01:36;;;;;;;60.17;27.50;;;2.80;99.90;;;;;;4824249;29;20217;-67
2022/11/23 06:04:06;;;;;;;60.97;27.63;;;2.70;99.90;;;;;;4819142;29;20196;-67
2022/11/23 06:06:43;;;;;;;57.10;26.80;;;2.70;99.90;;;;;;4808955;29;20217;-67
2022/11/23 06:09:12;;;;;;;63.13;27.03;;;2.70;99.90;;;;;;4825099;29;20272;-67
2022/11/23 06:11:44;;;;;;;60.37;27.57;;;2.80;99.90;;;;;;4806081;29;20565;-69
2022/11/23 06:14:17;;;;;;;58.83;27.67;;;2.90;99.90;;;;;;4808682;29;20241;-67
2022/11/23 06:16:46;;;;;;;52.93;25.50;;;2.80;99.90;;;;;;4808944;29;20297;-68
2022/11/23 06:19:38;;;;;;;62.87;28.80;;;2.70;99.90;;;;;;4776406;29;20295;-67
2022/11/23 06:22:09;;;;;;;62.07;28.17;;;2.60;99.90;;;;;;4754120;30;20212;-66
2022/11/23 06:24:44;;;;;;;63.27;29.53;;;2.60;99.90;;;;;;4753970;30;20696;-67
2022/11/23 06:27:55;;;;;;;70.33;29.43;;;2.70;99.90;;;;;;4733630;30;20208;-68
2022/11/23 06:30:28;;;;;;;64.83;31.50;;;2.80;99.90;;;;;;4733139;30;20228;-68
2022/11/23 06:33:03;;;;;;;57.70;28.23;;;2.80;99.90;;;;;;4718476;30;20224;-67
2022/11/23 06:35:37;;;;;;;68.70;30.23;;;2.70;99.90;;;;;;4733095;30;20225;-69
2022/11/23 06:38:07;;;;;;;59.93;27.10;;;2.60;99.90;;;;;;4733114;30;20245;-69
2022/11/23 06:40:36;;;;;;;65.03;28.70;;;2.40;99.90;;;;;;4733079;30;20209;-70
2022/11/23 06:43:04;;;;;;;59.57;26.70;;;2.30;99.90;;;;;;4747491;30;20219;-68
2022/11/23 06:45:39;;;;;;;64.53;27.33;;;2.30;99.90;;;;;;4746151;30;20283;-72
2022/11/23 06:48:11;;;;;;;62.47;27.33;;;2.30;99.90;;;;;;4718172;30;20221;-67
2022/11/23 06:50:44;;;;;;;69.60;30.80;;;2.20;99.90;;;;;;4718295;30;20764;-67
2022/11/23 06:53:14;;;;;;;69.73;29.93;;;2.30;99.90;;;;;;4732565;30;20705;-68
2022/11/23 06:55:47;;;;;;;70.27;28.63;;;2.30;99.90;;;;;;4735089;30;20315;-66
2022/11/23 06:58:18;;;;;;;72.17;28.80;;;2.40;99.90;;;;;;4753447;30;20248;-68
2022/11/23 07:00:47;;;;;;;64.67;27.67;;;2.20;99.90;;;;;;4766621;29;20211;-66
2022/11/23 07:03:20;;;;;;;69.03;27.90;;;2.40;99.90;;;;;;4791182;29;20680;-67
2022/11/23 07:05:51;;;;;;;66.00;28.33;;;2.30;99.90;;;;;;4789104;29;20337;-67
2022/11/23 07:08:23;;;;;;;73.90;29.70;;;2.30;99.90;;;;;;4782041;29;20273;-67
2022/11/23 07:10:53;;;;;;;67.93;27.20;;;2.30;99.90;;;;;;4788414;29;20211;-71
2022/11/23 07:13:22;;;;;;;63.57;27.17;;;2.50;99.90;;;;;;4824043;29;20608;-67
2022/11/23 07:15:50;;;;;;;85.77;33.83;;;2.60;99.90;;;;;;4814510;29;20214;-67
2022/11/23 07:18:18;;;;;;;69.27;30.73;;;2.70;99.90;;;;;;4824078;29;20203;-74
2022/11/23 07:20:52;;;;;;;71.50;31.87;;;2.80;99.90;;;;;;4807836;29;20573;-70
2022/11/23 07:23:22;;;;;;;69.83;30.77;;;2.80;99.90;;;;;;4807172;29;20214;-66
2022/11/23 07:25:51;;;;;;;62.07;29.00;;;2.90;99.90;;;;;;4805956;29;20304;-67
2022/11/23 07:28:19;;;;;;;59.17;27.90;;;2.90;99.90;;;;;;4807883;29;20206;-68
2022/11/23 07:30:50;;;;;;;62.43;29.60;;;2.90;99.90;;;;;;4833724;29;20306;-67
2022/11/23 07:33:20;;;;;;;65.00;28.03;;;2.80;99.90;;;;;;4825164;29;20578;-67
2022/11/23 07:35:49;;;;;;;58.40;28.17;;;2.80;99.90;;;;;;4825488;29;20233;-69
2022/11/23 07:38:17;;;;;;;61.73;27.27;;;2.70;99.90;;;;;;4830188;29;20204;-72
2022/11/23 07:40:50;;;;;;;63.00;27.23;;;2.80;99.90;;;;;;4799146;29;20194;-68
2022/11/23 07:43:40;;;;;;;61.33;28.20;;;2.40;99.90;;;;;;4807025;29;20214;-70
2022/11/23 07:46:08;;;;;;;59.77;27.10;;;2.30;99.90;;;;;;4823071;29;20210;-72
2022/11/23 07:48:36;;;;;;;61.67;27.30;;;2.30;99.90;;;;;;4823874;29;20217;-72
2022/11/23 07:51:05;;;;;;;73.00;28.77;;;2.30;99.90;;;;;;4818504;29;20246;-67
2022/11/23 07:53:34;;;;;;;71.67;30.33;;;2.40;99.90;;;;;;4828115;29;20220;-68
2022/11/23 07:56:04;;;;;;;81.60;31.27;;;2.40;99.90;;;;;;4823566;29;20259;-73
2022/11/23 07:58:33;;;;;;;69.20;28.23;;;2.40;99.90;;;;;;4823506;29;20634;-67
2022/11/23 08:01:01;;;;;;;62.23;26.70;;;2.40;99.90;;;;;;4823224;29;20260;-68
2022/11/23 08:03:30;;;;;;;68.10;30.23;;;2.40;99.90;;;;;;4817339;29;20214;-69
2022/11/23 08:05:58;;;;;;;76.33;29.43;;;2.40;99.90;;;;;;4824820;29;20212;-67
2022/11/23 08:08:27;;;;;;;72.67;30.80;;;2.40;99.90;;;;;;4797684;29;20711;-68
2022/11/23 08:10:55;;;;;;;80.87;29.77;;;2.50;99.90;;;;;;4788745;29;20230;-73
2022/11/23 08:13:25;;;;;;;78.53;30.27;;;2.60;99.90;;;;;;4808396;29;20215;-71
2022/11/23 08:15:53;;;;;;;68.50;31.57;;;2.70;99.90;;;;;;4801518;29;20534;-72
2022/11/23 08:18:23;;;;;;;76.80;32.33;;;2.70;99.90;;;;;;4811971;29;20249;-71
2022/11/23 08:20:51;;;;;;;74.57;30.83;;;2.60;99.90;;;;;;4798472;29;20218;-73
2022/11/23 08:23:20;;;;;;;67.73;28.67;;;2.70;99.90;;;;;;4799838;29;20714;-67
2022/11/23 08:25:49;;;;;;;73.03;30.97;;;2.60;99.90;;;;;;4795431;29;20209;-67
2022/11/23 08:28:17;;;;;;;67.80;28.97;;;2.50;99.90;;;;;;4823595;29;20217;-67
2022/11/23 08:30:48;;;;;;;76.47;30.97;;;2.50;99.90;;;;;;4823403;29;20634;-67
2022/11/23 08:33:16;;;;;;;71.70;28.67;;;2.60;99.90;;;;;;4823788;29;20209;-66
2022/11/23 08:35:45;;;;;;;73.57;30.47;;;2.60;99.90;;;;;;4805866;29;20211;-67
2022/11/23 08:38:13;;;;;;;72.33;33.23;;;2.50;99.90;;;;;;4823267;29;20213;-66
2022/11/23 08:40:41;;;;;;;82.70;37.93;;;2.40;99.90;;;;;;4823473;29;20209;-74
2022/11/23 08:43:10;;;;;;;80.77;32.53;;;2.40;99.90;;;;;;4823275;29;20218;-67
2022/11/23 08:45:38;;;;;;;72.10;31.10;;;2.50;99.90;;;;;;4823369;29;20211;-68
2022/11/23 08:48:09;;;;;;;73.43;29.87;;;2.40;99.90;;;;;;4822461;29;20298;-67
2022/11/23 08:50:38;;;;;;;68.00;29.27;;;2.50;99.90;;;;;;4800951;29;20347;-67
2022/11/23 08:53:06;;;;;;;80.27;31.90;;;2.50;99.90;;;;;;4787320;29;20207;-67
2022/11/23 08:55:34;;;;;;;89.90;37.53;;;2.60;99.90;;;;;;4801000;29;20215;-67
2022/11/23 08:58:03;;;;;;;74.87;30.67;;;2.70;99.90;;;;;;4823061;29;20206;-67
2022/11/23 09:00:35;;;;;;;81.17;32.20;;;2.80;99.90;;;;;;4822557;29;20215;-73
2022/11/23 09:03:04;;;;;;;75.97;29.97;;;2.80;99.90;;;;;;4805462;29;20566;-72
2022/11/23 09:05:36;;;;;;;87.80;38.70;;;2.70;99.90;;;;;;4798922;29;20298;-71
2022/11/23 09:08:06;;;;;;;68.73;31.07;;;2.60;99.90;;;;;;4798865;29;20264;-69
2022/11/23 09:10:34;;;;;;;85.90;33.83;;;2.70;99.90;;;;;;4840815;29;20696;-68
2022/11/23 09:13:02;;;;;;;75.73;32.67;;;2.70;99.90;;;;;;4840550;29;20209;-68
2022/11/23 09:15:31;;;;;;;72.00;28.87;;;2.70;99.90;;;;;;4840546;29;20198;-66
2022/11/23 09:17:59;;;;;;;66.97;31.23;;;2.70;99.90;;;;;;4822665;29;20205;-68
2022/11/23 09:20:27;;;;;;;69.37;30.60;;;2.70;99.90;;;;;;4823772;29;20210;-69
2022/11/23 09:22:57;;;;;;;70.90;29.07;;;2.70;99.90;;;;;;4817262;29;20209;-69
2022/11/23 09:25:25;;;;;;;74.50;31.00;;;2.70;99.90;;;;;;4808959;29;20215;-67
2022/11/23 09:27:58;;;;;;;75.27;31.00;;;2.80;99.90;;;;;;4815537;29;20263;-67
2022/11/23 09:30:27;;;;;;;73.43;29.87;;;2.90;99.90;;;;;;4840283;29;20229;-69
2022/11/23 09:32:56;;;;;;;76.57;31.00;;;3.00;99.90;;;;;;4840510;29;20625;-67
2022/11/23 09:35:24;;;;;;;82.33;31.00;;;3.10;99.90;;;;;;4843064;29;20216;-68
2022/11/23 09:37:58;;;;;;;77.33;31.80;;;3.20;99.90;;;;;;4825906;29;20564;-67
2022/11/23 09:40:30;;;;;;;66.63;30.43;;;3.30;99.90;;;;;;4825676;29;20206;-67
2022/11/23 09:43:10;;;;;;;68.20;28.53;;;3.20;99.90;;;;;;4825648;29;20200;-68
2022/11/23 09:45:46;;;;;;;63.77;28.70;;;3.10;99.90;;;;;;4825648;29;20209;-66
2022/11/23 09:48:40;;;;;;;55.97;27.13;;;3.00;99.90;;;;;;4829920;29;20216;-67
2022/11/23 09:51:15;;;;;;;69.60;28.80;;;2.90;99.90;;;;;;4843854;29;20229;-68
2022/11/23 09:53:49;;;;;;;60.33;25.67;;;2.90;99.90;;;;;;4843636;29;20687;-66
2022/11/23 09:56:21;;;;;;;63.40;27.53;;;3.00;99.90;;;;;;4824074;29;20282;-67
2022/11/23 09:58:54;;;;;;;75.60;29.70;;;3.00;99.90;;;;;;4815251;29;20618;-68
2022/11/23 10:01:23;;;;;;;75.27;28.33;;;2.90;99.90;;;;;;4837522;29;20680;-68
2022/11/23 10:03:51;;;;;;;76.20;32.07;;;2.90;99.90;;;;;;4843506;29;20205;-69
2022/11/23 10:06:22;;;;;;;73.87;32.20;;;2.90;99.90;;;;;;4843758;29;20202;-67
2022/11/23 10:09:19;;;;;;;70.77;31.13;;;3.00;99.90;;;;;;4839882;29;20237;-67
2022/11/23 10:12:01;;;;;;;73.03;30.97;;;3.20;99.90;;;;;;4815138;29;20235;-68
2022/11/23 10:14:53;;;;;;;72.90;30.10;;;3.20;99.90;;;;;;4820033;29;20201;-68
2022/11/23 10:17:30;;;;;;;81.47;33.43;;;3.20;99.90;;;;;;4807025;29;20222;-67
2022/11/23 10:20:20;;;;;;;84.60;36.87;;;3.20;99.90;;;;;;4841433;29;20230;-68
2022/11/23 10:22:56;;;;;;;84.23;32.63;;;3.20;99.90;;;;;;4839999;29;20222;-74
2022/11/23 10:25:32;;;;;;;77.57;32.10;;;3.20;99.90;;;;;;4843239;29;20712;-68
2022/11/23 10:28:14;;;;;;;77.30;32.77;;;3.20;99.90;;;;;;4843355;29;20213;-68
2022/11/23 10:30:42;;;;;;;77.70;30.43;;;3.30;99.90;;;;;;4843632;29;20242;-67
2022/11/23 10:33:21;;;;;;;81.93;31.57;;;3.30;99.90;;;;;;4843483;29;20703;-68
2022/11/23 10:35:50;;;;;;;83.47;35.70;;;3.20;99.90;;;;;;4843687;29;20218;-67
2022/11/23 10:38:19;;;;;;;84.30;38.70;;;3.30;99.90;;;;;;4843641;29;20638;-68
2022/11/23 10:41:01;;;;;;;76.50;31.63;;;3.50;99.90;;;;;;4843721;29;20216;-68
2022/11/23 10:43:35;;;;;;;71.57;28.73;;;3.50;99.90;;;;;;4843568;29;20212;-70
2022/11/23 10:46:24;;;;;;;78.20;31.70;;;3.60;99.90;;;;;;4843523;29;20198;-67
2022/11/23 10:48:54;;;;;;;61.67;27.40;;;3.60;99.90;;;;;;4843422;29;20203;-68
2022/11/23 10:51:29;;;;;;;61.93;28.03;;;3.50;99.90;;;;;;4843718;29;20221;-67
2022/11/23 10:54:02;;;;;;;65.00;27.90;;;3.30;99.90;;;;;;4828567;29;20209;-67
2022/11/23 10:56:34;;;;;;;63.93;27.50;;;3.20;99.90;;;;;;4810668;29;20664;-70
2022/11/23 10:59:02;;;;;;;70.57;27.57;;;3.10;99.90;;;;;;4811138;29;20242;-68
2022/11/23 11:01:31;;;;;;;70.60;29.07;;;3.10;99.90;;;;;;4826646;29;20206;-68
2022/11/23 11:04:03;;;;;;;74.03;29.90;;;3.20;99.90;;;;;;4841675;29;20273;-70
2022/11/23 11:06:34;;;;;;;66.27;28.07;;;3.30;99.90;;;;;;4843341;29;20203;-69
2022/11/23 11:09:05;;;;;;;65.20;28.37;;;3.20;99.90;;;;;;4843055;29;20229;-69
2022/11/23 11:11:47;;;;;;;75.67;31.27;;;3.20;99.90;;;;;;4835249;29;20230;-67
2022/11/23 11:14:18;;;;;;;68.57;29.27;;;3.20;99.90;;;;;;4834612;29;20245;-72
2022/11/23 11:16:49;;;;;;;68.97;29.03;;;3.30;99.90;;;;;;4842928;29;20213;-69
2022/11/23 11:19:27;;;;;;;76.50;30.47;;;3.30;99.90;;;;;;4843089;29;20291;-73
2022/11/23 11:21:56;;;;;;;66.00;27.30;;;3.50;99.90;;;;;;4814557;29;20677;-67
2022/11/23 11:24:31;;;;;;;74.00;28.90;;;3.60;99.90;;;;;;4819116;29;20233;-68
2022/11/23 11:27:04;;;;;;;58.60;25.27;;;3.70;99.90;;;;;;4806588;29;20214;-71
2022/11/23 11:29:35;;;;;;;57.87;25.27;;;3.80;99.90;;;;;;4806587;29;20249;-67
2022/11/23 11:32:13;;;;;;;58.77;25.43;;;3.70;99.90;;;;;;4806358;29;20712;-71
2022/11/23 11:34:46;;;;;;;62.53;25.93;;;3.50;99.90;;;;;;4806326;29;20214;-75
2022/11/23 11:37:21;;;;;;;84.93;35.10;;;3.40;99.90;;;;;;4806319;29;20216;-68
2022/11/23 11:39:55;;;;;;;61.87;28.83;;;3.30;99.90;;;;;;4819394;29;20216;-70
2022/11/23 11:42:40;;;;;;;66.20;30.20;;;3.30;99.90;;;;;;4836510;29;20666;-69
2022/11/23 11:45:17;;;;;;;74.40;37.23;;;3.20;99.90;;;;;;4842628;29;20705;-68
2022/11/23 11:47:51;;;;;;;63.17;30.50;;;3.40;99.90;;;;;;4842637;29;20216;-71
2022/11/23 11:50:23;;;;;;;66.17;29.53;;;3.50;99.90;;;;;;4826184;29;20577;-68
2022/11/23 11:53:04;;;;;;;59.40;28.20;;;3.60;99.90;;;;;;4822580;29;20297;-71
2022/11/23 11:55:48;;;;;;;63.30;29.10;;;3.50;99.90;;;;;;4807113;29;20211;-67
2022/11/23 11:58:19;;;;;;;70.10;29.13;;;3.50;99.90;;;;;;4830155;29;20204;-68
2022/11/23 12:00:49;;;;;;;62.23;27.83;;;3.60;99.90;;;;;;4839915;29;20275;-67
2022/11/23 12:03:27;;;;;;;62.17;26.97;;;3.60;99.90;;;;;;4842213;29;20256;-72
2022/11/23 12:06:03;;;;;;;68.97;29.47;;;3.60;99.90;;;;;;4840648;29;20295;-73
2022/11/23 12:08:40;;;;;;;59.93;27.40;;;3.60;99.90;;;;;;4841292;29;20327;-68
2022/11/23 12:11:11;;;;;;;63.87;26.50;;;3.60;99.90;;;;;;4841128;29;20226;-69
2022/11/23 12:13:45;;;;;;;59.67;27.03;;;3.60;99.90;;;;;;4841315;29;20213;-74
2022/11/23 12:16:24;;;;;;;62.30;27.27;;;3.50;99.90;;;;;;4840306;29;20216;-68
2022/11/23 12:19:08;;;;;;;60.77;26.43;;;3.40;99.90;;;;;;4804940;29;20224;-68
2022/11/23 12:22:00;;;;;;;52.70;24.60;;;3.50;99.90;;;;;;4804951;29;20236;-67
2022/11/23 12:24:42;;;;;;;68.70;27.73;;;3.50;99.90;;;;;;4802653;29;20717;-68
2022/11/23 12:27:23;;;;;;;72.00;28.67;;;3.50;99.90;;;;;;4804991;29;20582;-72
2022/11/23 12:30:13;;;;;;;57.83;26.33;;;3.60;99.90;;;;;;4804703;29;20235;-68
2022/11/23 12:32:51;;;;;;;57.33;25.17;;;3.60;99.90;;;;;;4814674;29;20238;-68
2022/11/23 12:35:37;;;;;;;59.77;26.13;;;3.60;99.90;;;;;;4823378;29;20298;-69
2022/11/23 12:38:17;;;;;;;56.80;26.03;;;3.50;99.90;;;;;;4834254;29;20213;-74
2022/11/23 12:41:08;;;;;;;60.83;25.00;;;3.50;99.90;;;;;;4841117;29;20761;-75
2022/11/23 12:43:51;;;;;;;67.07;27.27;;;3.50;99.90;;;;;;4841224;29;20218;-68
2022/11/23 12:46:28;;;;;;;58.47;25.93;;;3.40;99.90;;;;;;4840885;29;20688;-76
2022/11/23 12:49:08;;;;;;;65.20;27.97;;;3.50;99.90;;;;;;4841007;29;20205;-68
2022/11/23 12:51:45;;;;;;;60.67;27.13;;;3.50;99.90;;;;;;4840749;29;20257;-67
2022/11/23 12:54:28;;;;;;;62.13;27.17;;;3.60;99.90;;;;;;4841080;29;20226;-66
2022/11/23 12:57:10;;;;;;;58.73;27.90;;;3.60;99.90;;;;;;4841018;29;20304;-66
2022/11/23 12:59:53;;;;;;;61.67;26.17;;;3.60;99.90;;;;;;4840993;29;20590;-70
2022/11/23 13:02:58;;;;;;;70.37;30.53;;;3.60;99.90;;;;;;4840850;29;20226;-67